Time;durP1;ratioP1;P1;durP2;ratioP2;P2;SDS_P1;SDS_P2;PMS_P1;PMS_P2;Temp;Humidity;BMP_temperature;BMP_pressure;BME280_temperature;BME280_humidity;BME280_pressure;Samples;Min_cycle;Max_cycle;Signal;HPM_P1;HPM_P2
2021/01/19 00:01:19;;;;;;;9.05;6.53;;;;;11.80;101341.00;;;;5005390;28;20202;-79
2021/01/19 00:03:46;;;;;;;7.97;5.72;;;;;11.80;101332.00;;;;5007660;28;20251;-78
2021/01/19 00:06:13;;;;;;;8.70;6.00;;;;;11.80;101327.00;;;;5009241;28;21189;-78
2021/01/19 00:08:39;;;;;;;7.65;6.43;;;;;11.80;101327.00;;;;4997010;28;20699;-78
2021/01/19 00:11:06;;;;;;;7.13;4.80;;;;;11.80;101318.00;;;;5009069;28;20209;-77
2021/01/19 00:13:33;;;;;;;6.38;5.15;;;;;11.80;101314.00;;;;5006572;28;20251;-78
2021/01/19 00:16:00;;;;;;;15.38;5.03;;;;;11.80;101298.00;;;;4992249;28;20672;-78
2021/01/19 00:18:27;;;;;;;7.85;5.70;;;;;11.80;101300.00;;;;4994735;28;20209;-78
2021/01/19 00:20:54;;;;;;;6.65;5.03;;;;;11.80;101306.00;;;;5005902;28;20208;-78
2021/01/19 00:23:21;;;;;;;9.60;4.65;;;;;11.80;101300.00;;;;5010147;28;20715;-78
2021/01/19 00:25:47;;;;;;;9.07;4.53;;;;;11.80;101295.00;;;;5003492;28;20200;-78
2021/01/19 00:28:14;;;;;;;8.50;4.40;;;;;11.80;101295.00;;;;5009374;28;20200;-78
2021/01/19 00:30:42;;;;;;;6.65;4.10;;;;;11.80;101291.00;;;;5008313;28;20467;-78
2021/01/19 00:33:10;;;;;;;7.57;3.78;;;;;11.80;101287.00;;;;5002838;28;20228;-78
2021/01/19 00:35:40;;;;;;;3.92;3.15;;;;;11.80;101289.00;;;;5007672;28;20255;-78
2021/01/19 00:38:07;;;;;;;5.85;3.35;;;;;11.80;101278.00;;;;5003418;28;20190;-78
2021/01/19 00:40:34;;;;;;;4.93;2.40;;;;;11.80;101279.00;;;;5009021;28;20205;-80
2021/01/19 00:43:02;;;;;;;7.85;2.80;;;;;11.80;101275.00;;;;5005550;28;20646;-78
2021/01/19 00:45:29;;;;;;;4.45;2.65;;;;;11.80;101272.00;;;;5006119;28;20189;-78
2021/01/19 00:47:56;;;;;;;5.45;3.00;;;;;11.70;101257.00;;;;5005173;28;20204;-78
2021/01/19 00:50:24;;;;;;;5.47;2.83;;;;;11.70;101258.00;;;;5009713;28;20204;-79
2021/01/19 00:52:51;;;;;;;3.17;2.22;;;;;11.70;101251.00;;;;5005820;28;20758;-78
2021/01/19 00:55:18;;;;;;;4.38;2.13;;;;;11.70;101246.00;;;;4993050;28;20197;-78
2021/01/19 00:57:45;;;;;;;5.55;2.05;;;;;11.70;101234.00;;;;4997561;28;20208;-78
2021/01/19 01:00:14;;;;;;;4.05;1.55;;;;;11.70;101228.00;;;;5003198;28;20339;-78
2021/01/19 01:02:41;;;;;;;3.88;1.73;;;;;11.70;101221.00;;;;4996995;28;20205;-78
2021/01/19 01:05:09;;;;;;;3.63;2.00;;;;;11.70;101211.00;;;;5009982;28;20212;-78
2021/01/19 01:07:37;;;;;;;4.85;2.15;;;;;11.70;101205.00;;;;5002891;28;20221;-78
2021/01/19 01:10:07;;;;;;;5.13;2.38;;;;;11.70;101201.00;;;;5007355;28;20213;-78
2021/01/19 01:12:34;;;;;;;4.63;2.03;;;;;11.70;101186.00;;;;5008871;28;20221;-78
2021/01/19 01:15:02;;;;;;;5.75;1.95;;;;;11.70;101191.00;;;;4997067;28;20205;-78
2021/01/19 01:17:28;;;;;;;3.60;1.67;;;;;11.60;101177.00;;;;4994627;28;20208;-78
2021/01/19 01:19:55;;;;;;;3.72;1.20;;;;;11.60;101177.00;;;;4995198;28;20205;-78
2021/01/19 01:22:22;;;;;;;8.10;2.10;;;;;11.60;101166.00;;;;5005854;28;20642;-79
2021/01/19 01:24:48;;;;;;;3.33;1.83;;;;;11.60;101158.00;;;;5002903;28;20197;-78
2021/01/19 01:27:16;;;;;;;2.92;1.80;;;;;11.50;101144.00;;;;5002072;28;20196;-78
2021/01/19 01:29:43;;;;;;;3.25;1.40;;;;;11.50;101146.00;;;;5009903;28;20239;-79
2021/01/19 01:32:09;;;;;;;2.63;1.40;;;;;11.50;101143.00;;;;4998340;28;20589;-79
2021/01/19 01:34:36;;;;;;;4.40;1.63;;;;;11.50;101136.00;;;;5006830;28;20200;-79
2021/01/19 01:37:03;;;;;;;4.47;1.67;;;;;11.50;101129.00;;;;5008306;28;20554;-78
2021/01/19 01:39:30;;;;;;;1.25;1.15;;;;;11.50;101121.00;;;;5006877;28;20208;-79
2021/01/19 01:41:56;;;;;;;2.70;1.48;;;;;11.40;101117.00;;;;5011497;28;20193;-79
2021/01/19 01:44:24;;;;;;;3.65;1.52;;;;;11.40;101105.00;;;;5005558;28;20197;-78
2021/01/19 01:46:51;;;;;;;5.90;1.92;;;;;11.40;101110.00;;;;5003661;28;20193;-78
2021/01/19 01:49:17;;;;;;;3.75;1.27;;;;;11.40;101102.00;;;;5011625;28;20201;-78
2021/01/19 01:51:44;;;;;;;1.98;1.00;;;;;11.40;101094.00;;;;5004652;28;20694;-78
2021/01/19 01:54:11;;;;;;;7.18;1.65;;;;;11.40;101087.00;;;;5012217;28;20221;-78
2021/01/19 01:56:38;;;;;;;2.53;1.13;;;;;11.40;101090.00;;;;5007771;28;20200;-78
2021/01/19 01:59:05;;;;;;;2.17;1.60;;;;;11.40;101079.00;;;;5011847;28;20236;-78
2021/01/19 02:01:33;;;;;;;6.28;1.90;;;;;11.40;101082.00;;;;5011070;28;20194;-78
2021/01/19 02:04:00;;;;;;;4.78;1.27;;;;;11.40;101070.00;;;;5011944;28;20578;-78
2021/01/19 02:06:28;;;;;;;5.63;1.83;;;;;11.40;101062.00;;;;5011237;28;20276;-78
2021/01/19 02:09:03;;;;;;;3.17;0.80;;;;;11.30;101038.00;;;;5012443;28;20578;-78
2021/01/19 02:11:46;;;;;;;2.75;1.52;;;;;11.30;101041.00;;;;5011569;28;20617;-78
2021/01/19 02:14:17;;;;;;;3.65;1.17;;;;;11.40;101040.00;;;;5011238;28;20224;-78
2021/01/19 02:16:56;;;;;;;4.00;1.33;;;;;11.30;101023.00;;;;5004097;28;20197;-79
2021/01/19 02:19:58;;;;;;;3.15;1.50;;;;;11.30;101024.00;;;;5003843;28;20201;-78
2021/01/19 02:23:01;;;;;;;1.73;0.85;;;;;11.30;101013.00;;;;5012199;28;20214;-79
2021/01/19 02:25:50;;;;;;;4.25;1.50;;;;;11.30;101011.00;;;;5011402;28;20229;-79
2021/01/19 02:28:23;;;;;;;2.60;1.05;;;;;11.30;100995.00;;;;5011501;28;20201;-78
2021/01/19 02:31:06;;;;;;;3.50;1.23;;;;;11.30;100990.00;;;;5009458;28;20189;-78
2021/01/19 02:33:39;;;;;;;2.90;1.23;;;;;11.30;100981.00;;;;4992127;28;20225;-78
2021/01/19 02:36:18;;;;;;;5.43;1.05;;;;;11.30;100979.00;;;;4996915;28;20725;-78
2021/01/19 02:38:54;;;;;;;2.70;1.40;;;;;11.30;100974.00;;;;5010680;28;20255;-79
2021/01/19 02:41:22;;;;;;;3.42;1.77;;;;;11.30;100964.00;;;;5010164;28;20208;-78
2021/01/19 02:44:07;;;;;;;7.47;2.08;;;;;11.20;100963.00;;;;5010344;28;20263;-78
2021/01/19 02:46:34;;;;;;;5.75;1.70;;;;;11.30;100949.00;;;;5000133;28;20216;-78
2021/01/19 02:49:02;;;;;;;2.63;1.40;;;;;11.30;100947.00;;;;5007263;28;20197;-78
2021/01/19 02:51:29;;;;;;;5.07;1.10;;;;;11.30;100939.00;;;;5003789;28;20225;-79
2021/01/19 02:53:57;;;;;;;6.13;1.65;;;;;11.30;100939.00;;;;4996927;28;20217;-79
2021/01/19 02:56:33;;;;;;;5.53;1.70;;;;;11.20;100936.00;;;;5007469;28;20193;-78
2021/01/19 02:59:10;;;;;;;2.72;1.38;;;;;11.20;100933.00;;;;5008931;28;20232;-78
2021/01/19 03:01:43;;;;;;;2.53;1.20;;;;;11.20;100921.00;;;;5003032;28;20200;-78
2021/01/19 03:04:13;;;;;;;4.60;1.45;;;;;11.20;100908.00;;;;5010167;28;20618;-78
2021/01/19 03:06:43;;;;;;;6.60;1.98;;;;;11.20;100909.00;;;;5011340;28;20336;-78
2021/01/19 03:09:10;;;;;;;2.10;1.13;;;;;11.20;100910.00;;;;5007583;28;20675;-78
2021/01/19 03:11:40;;;;;;;1.77;1.05;;;;;11.20;100894.00;;;;5001154;28;20213;-78
2021/01/19 03:14:07;;;;;;;4.28;1.73;;;;;11.20;100883.00;;;;4996994;28;20221;-78
2021/01/19 03:16:34;;;;;;;4.40;1.45;;;;;11.20;100892.00;;;;5000592;28;20201;-78
2021/01/19 03:19:01;;;;;;;3.92;2.10;;;;;11.20;100888.00;;;;5009342;28;20204;-78
2021/01/19 03:21:28;;;;;;;3.17;1.50;;;;;11.10;100872.00;;;;5004368;28;20217;-78
2021/01/19 03:23:55;;;;;;;5.43;1.70;;;;;11.10;100863.00;;;;5008995;28;20211;-78
2021/01/19 03:26:22;;;;;;;2.78;1.58;;;;;11.10;100856.00;;;;5011453;28;20259;-77
2021/01/19 03:28:48;;;;;;;5.60;2.20;;;;;11.10;100851.00;;;;5010838;28;20197;-78
2021/01/19 03:31:15;;;;;;;3.50;2.10;;;;;11.10;100836.00;;;;5005702;28;20201;-77
2021/01/19 03:33:42;;;;;;;5.18;2.00;;;;;11.10;100832.00;;;;5006102;28;20217;-78
2021/01/19 03:36:09;;;;;;;6.40;2.45;;;;;11.10;100825.00;;;;5011804;28;20196;-77
2021/01/19 03:38:36;;;;;;;4.85;1.70;;;;;11.00;100816.00;;;;5011105;28;20690;-77
2021/01/19 03:41:03;;;;;;;8.15;2.28;;;;;11.10;100806.00;;;;5011972;28;20200;-77
2021/01/19 03:43:30;;;;;;;5.90;2.30;;;;;11.10;100797.00;;;;5013001;28;20248;-77
2021/01/19 03:45:57;;;;;;;3.78;1.90;;;;;11.00;100796.00;;;;5010169;28;20209;-77
2021/01/19 03:48:23;;;;;;;6.15;2.42;;;;;11.00;100784.00;;;;5009265;28;20204;-77
2021/01/19 03:50:50;;;;;;;5.30;2.50;;;;;11.00;100795.00;;;;5012110;28;20202;-77
2021/01/19 03:53:17;;;;;;;4.30;2.22;;;;;11.00;100773.00;;;;5002836;28;20235;-77
2021/01/19 03:55:44;;;;;;;5.35;2.60;;;;;11.00;100779.00;;;;4992194;28;20205;-77
2021/01/19 03:58:11;;;;;;;3.40;1.90;;;;;11.00;100773.00;;;;5002165;28;20193;-77
2021/01/19 04:00:38;;;;;;;4.10;2.40;;;;;11.00;100769.00;;;;5009144;28;20225;-77
2021/01/19 04:03:05;;;;;;;5.85;2.47;;;;;11.00;100769.00;;;;4993382;28;20197;-77
2021/01/19 04:05:31;;;;;;;5.10;2.47;;;;;11.00;100764.00;;;;4993109;28;20210;-78
2021/01/19 04:07:58;;;;;;;3.25;2.70;;;;;11.00;100761.00;;;;5011527;28;20193;-76
2021/01/19 04:10:25;;;;;;;7.65;2.72;;;;;11.00;100757.00;;;;5011040;28;20714;-77
2021/01/19 04:12:52;;;;;;;5.00;2.58;;;;;11.00;100749.00;;;;4996634;28;20694;-77
2021/01/19 04:15:19;;;;;;;6.82;2.67;;;;;10.90;100747.00;;;;4989790;28;20213;-78
2021/01/19 04:17:46;;;;;;;5.68;2.80;;;;;10.90;100753.00;;;;4992594;28;20197;-77
2021/01/19 04:20:13;;;;;;;6.07;3.03;;;;;10.90;100740.00;;;;5010329;28;21062;-77
2021/01/19 04:22:40;;;;;;;4.53;2.67;;;;;10.90;100748.00;;;;4995733;28;20213;-77
2021/01/19 04:25:07;;;;;;;4.20;2.70;;;;;10.90;100730.00;;;;4994129;28;20212;-77
2021/01/19 04:27:34;;;;;;;8.15;3.55;;;;;10.90;100724.00;;;;4997492;28;20244;-77
2021/01/19 04:30:07;;;;;;;4.82;3.22;;;;;10.90;100719.00;;;;5005477;28;20208;-77
2021/01/19 04:32:34;;;;;;;5.53;2.83;;;;;10.90;100709.00;;;;5001733;28;20308;-77
2021/01/19 04:35:01;;;;;;;4.72;3.13;;;;;11.00;100696.00;;;;5006463;28;20294;-77
2021/01/19 04:37:27;;;;;;;3.33;2.67;;;;;11.00;100706.00;;;;4990486;28;20229;-76
2021/01/19 04:39:55;;;;;;;3.95;2.88;;;;;11.00;100690.00;;;;4989362;28;20201;-77
2021/01/19 04:42:21;;;;;;;4.20;2.80;;;;;11.00;100672.00;;;;5008138;28;20224;-77
2021/01/19 04:44:50;;;;;;;4.65;2.65;;;;;11.00;100670.00;;;;5002655;28;20221;-77
2021/01/19 04:47:17;;;;;;;5.43;3.17;;;;;11.00;100664.00;;;;4995045;28;20609;-77
2021/01/19 04:49:45;;;;;;;4.82;2.75;;;;;11.00;100654.00;;;;5009773;28;20670;-77
2021/01/19 04:52:16;;;;;;;3.90;3.08;;;;;10.90;100644.00;;;;5008087;28;20251;-77
2021/01/19 04:54:59;;;;;;;4.55;2.47;;;;;10.90;100643.00;;;;5008602;28;20201;-77
2021/01/19 04:57:29;;;;;;;3.90;2.50;;;;;10.90;100626.00;;;;5001685;28;20202;-77
2021/01/19 05:00:01;;;;;;;2.88;2.53;;;;;10.90;100632.00;;;;4996886;28;20260;-77
2021/01/19 05:03:01;;;;;;;3.42;2.55;;;;;10.90;100632.00;;;;5006977;28;20236;-76
2021/01/19 05:05:59;;;;;;;3.25;2.22;;;;;10.90;100621.00;;;;5010748;28;20799;-77
2021/01/19 05:09:06;;;;;;;3.22;2.22;;;;;10.80;100612.00;;;;5010894;28;20200;-77
2021/01/19 05:11:49;;;;;;;2.63;2.30;;;;;10.90;100610.00;;;;5012507;28;20606;-77
2021/01/19 05:14:20;;;;;;;2.42;2.22;;;;;10.90;100609.00;;;;5010885;28;20256;-77
2021/01/19 05:16:49;;;;;;;2.90;2.58;;;;;10.90;100603.00;;;;5013890;28;20212;-77
2021/01/19 05:19:21;;;;;;;3.45;2.45;;;;;10.90;100593.00;;;;5014782;28;20204;-77
2021/01/19 05:21:52;;;;;;;3.60;2.33;;;;;10.90;100599.00;;;;5014907;28;20200;-76
2021/01/19 05:24:19;;;;;;;3.35;2.13;;;;;10.90;100594.00;;;;5002577;28;20208;-77
2021/01/19 05:26:46;;;;;;;2.08;1.88;;;;;10.90;100570.00;;;;5014433;28;20201;-77
2021/01/19 05:29:12;;;;;;;2.20;1.88;;;;;11.00;100568.00;;;;5013562;28;20308;-77
2021/01/19 05:31:39;;;;;;;2.28;1.83;;;;;11.00;100562.00;;;;5013409;28;20744;-77
2021/01/19 05:34:09;;;;;;;2.70;1.85;;;;;11.00;100558.00;;;;5005390;28;20229;-76
2021/01/19 05:36:40;;;;;;;2.22;1.75;;;;;11.00;100553.00;;;;5011551;28;20209;-76
2021/01/19 05:39:08;;;;;;;3.00;1.63;;;;;11.00;100533.00;;;;5012111;28;20637;-76
2021/01/19 05:41:38;;;;;;;2.58;1.90;;;;;11.10;100533.00;;;;5011836;28;20535;-77
2021/01/19 05:44:20;;;;;;;3.33;1.70;;;;;11.00;100521.00;;;;5006261;28;20247;-77
2021/01/19 05:46:52;;;;;;;4.30;2.00;;;;;11.10;100512.00;;;;5010537;28;20200;-77
2021/01/19 05:49:21;;;;;;;3.25;2.05;;;;;11.10;100494.00;;;;5008345;28;21048;-77
2021/01/19 05:51:50;;;;;;;1.98;1.60;;;;;11.10;100490.00;;;;5006577;28;20193;-77
2021/01/19 05:54:28;;;;;;;3.13;1.65;;;;;11.10;100488.00;;;;5002367;28;20304;-77
2021/01/19 05:57:07;;;;;;;3.55;2.00;;;;;11.00;100461.00;;;;5006385;28;20193;-77
2021/01/19 05:59:41;;;;;;;2.22;1.83;;;;;11.10;100473.00;;;;5012494;28;20714;-77
2021/01/19 06:02:10;;;;;;;3.53;1.73;;;;;11.10;100448.00;;;;4998820;28;20272;-77
2021/01/19 06:04:42;;;;;;;2.65;1.90;;;;;11.10;100450.00;;;;4998289;28;20240;-79
2021/01/19 06:07:11;;;;;;;2.33;1.85;;;;;11.10;100457.00;;;;5005872;28;22018;-77
2021/01/19 06:09:39;;;;;;;3.17;1.75;;;;;11.20;100434.00;;;;5010158;28;20197;-76
2021/01/19 06:12:07;;;;;;;2.40;2.00;;;;;11.20;100426.00;;;;5007996;28;20201;-78
2021/01/19 06:14:34;;;;;;;1.98;1.63;;;;;11.20;100414.00;;;;5002741;28;20711;-77
2021/01/19 06:17:11;;;;;;;2.38;1.85;;;;;11.10;100414.00;;;;5008775;28;20231;-77
2021/01/19 06:19:41;;;;;;;2.20;1.70;;;;;11.20;100405.00;;;;5012801;28;20216;-77
2021/01/19 06:22:11;;;;;;;2.30;1.60;;;;;11.20;100385.00;;;;5013104;28;20240;-77
2021/01/19 06:24:40;;;;;;;2.28;1.48;;;;;11.30;100372.00;;;;5014945;28;20205;-78
2021/01/19 06:27:08;;;;;;;2.47;1.77;;;;;11.30;100379.00;;;;5011299;28;20745;-77
2021/01/19 06:29:35;;;;;;;2.08;1.48;;;;;11.30;100362.00;;;;4996953;28;20209;-77
2021/01/19 06:32:07;;;;;;;2.60;1.88;;;;;11.30;100357.00;;;;4995859;28;20194;-77
2021/01/19 06:34:37;;;;;;;2.85;1.63;;;;;11.30;100358.00;;;;5009616;28;20239;-77
2021/01/19 06:37:06;;;;;;;2.03;1.50;;;;;11.30;100358.00;;;;5015358;28;20201;-77
2021/01/19 06:39:39;;;;;;;3.25;1.58;;;;;11.30;100358.00;;;;5009556;28;20232;-77
2021/01/19 06:42:11;;;;;;;3.15;1.80;;;;;11.40;100359.00;;;;5013289;28;20666;-77
2021/01/19 06:44:41;;;;;;;1.30;1.15;;;;;11.40;100357.00;;;;5011755;28;20263;-78
2021/01/19 06:47:08;;;;;;;2.42;1.63;;;;;11.40;100340.00;;;;5011541;28;20663;-77
2021/01/19 06:49:37;;;;;;;1.60;1.00;;;;;11.40;100341.00;;;;5006392;28;20197;-76
2021/01/19 06:52:06;;;;;;;1.80;1.50;;;;;11.40;100344.00;;;;5014004;28;20193;-78
2021/01/19 06:54:49;;;;;;;1.50;1.30;;;;;11.40;100335.00;;;;5011047;28;20216;-79
2021/01/19 06:57:32;;;;;;;1.20;1.10;;;;;11.40;100314.00;;;;4995192;28;20205;-78
2021/01/19 07:00:10;;;;;;;1.98;1.35;;;;;11.50;100304.00;;;;4996520;28;20241;-79
2021/01/19 07:02:38;;;;;;;1.27;1.17;;;;;11.50;100313.00;;;;4993747;28;20198;-78
2021/01/19 07:05:10;;;;;;;1.45;1.08;;;;;11.50;100293.00;;;;4995090;28;20201;-78
2021/01/19 07:07:44;;;;;;;1.65;1.20;;;;;11.50;100294.00;;;;4992436;28;20193;-78
2021/01/19 07:10:14;;;;;;;1.90;1.30;;;;;11.50;100276.00;;;;4993399;28;20995;-79
2021/01/19 07:13:01;;;;;;;2.25;1.40;;;;;11.50;100279.00;;;;5000175;28;20255;-78
2021/01/19 07:16:02;;;;;;;2.53;1.08;;;;;11.50;100277.00;;;;5012636;28;20201;-79
2021/01/19 07:18:58;;;;;;;2.88;1.27;;;;;11.50;100276.00;;;;5014592;28;20232;-79
2021/01/19 07:21:58;;;;;;;2.15;1.17;;;;;11.50;100248.00;;;;5004277;28;20201;-79
2021/01/19 07:24:27;;;;;;;2.00;1.10;;;;;11.60;100250.00;;;;5012145;28;20263;-79
2021/01/19 07:26:58;;;;;;;1.30;1.20;;;;;11.60;100261.00;;;;5013345;28;20209;-78
2021/01/19 07:29:25;;;;;;;1.25;1.10;;;;;11.70;100241.00;;;;5012456;28;20566;-78
2021/01/19 07:31:52;;;;;;;1.55;1.08;;;;;11.70;100248.00;;;;5013103;28;20205;-78
2021/01/19 07:34:20;;;;;;;1.55;1.13;;;;;11.70;100241.00;;;;5011848;28;20228;-78
2021/01/19 07:36:54;;;;;;;2.30;1.35;;;;;11.70;100242.00;;;;5014340;28;20268;-78
2021/01/19 07:39:21;;;;;;;1.20;0.98;;;;;11.80;100249.00;;;;5014008;28;20211;-78
2021/01/19 07:41:48;;;;;;;2.08;0.73;;;;;11.80;100236.00;;;;5015248;28;20659;-79
2021/01/19 07:44:23;;;;;;;1.17;0.82;;;;;11.70;100241.00;;;;5014689;28;20228;-78
2021/01/19 07:46:50;;;;;;;1.58;1.13;;;;;11.80;100230.00;;;;5006560;28;20252;-78
2021/01/19 07:49:17;;;;;;;1.00;0.82;;;;;11.80;100231.00;;;;5004005;28;20667;-78
2021/01/19 07:51:45;;;;;;;2.75;1.52;;;;;11.90;100217.00;;;;5016005;28;20201;-79
2021/01/19 07:54:13;;;;;;;1.48;1.00;;;;;11.90;100232.00;;;;5015214;28;20370;-78
2021/01/19 07:56:40;;;;;;;1.52;1.30;;;;;11.90;100244.00;;;;5013677;28;20213;-79
2021/01/19 07:59:17;;;;;;;1.13;0.98;;;;;11.90;100224.00;;;;5013682;28;20235;-78
2021/01/19 08:01:55;;;;;;;1.83;1.10;;;;;11.90;100220.00;;;;5015704;28;20208;-79
2021/01/19 08:04:28;;;;;;;1.48;1.25;;;;;12.00;100234.00;;;;5000203;28;20201;-78
2021/01/19 08:06:55;;;;;;;1.20;1.10;;;;;12.00;100202.00;;;;4991769;28;20205;-79
2021/01/19 08:09:22;;;;;;;2.60;1.40;;;;;12.00;100219.00;;;;4992895;28;20209;-79
2021/01/19 08:12:04;;;;;;;1.50;1.15;;;;;12.00;100213.00;;;;4994988;28;20249;-78
2021/01/19 08:14:36;;;;;;;1.67;1.08;;;;;12.10;100214.00;;;;5002002;28;20233;-78
2021/01/19 08:17:04;;;;;;;1.50;1.40;;;;;12.10;100218.00;;;;5012937;28;20212;-79
2021/01/19 08:19:36;;;;;;;1.30;1.20;;;;;12.10;100209.00;;;;5010637;28;20232;-79
2021/01/19 08:22:03;;;;;;;2.67;1.15;;;;;12.10;100209.00;;;;5012933;28;20236;-78
2021/01/19 08:24:30;;;;;;;1.50;1.00;;;;;12.20;100200.00;;;;5010053;28;20205;-79
2021/01/19 08:26:57;;;;;;;1.08;0.90;;;;;12.20;100193.00;;;;5011680;28;20597;-78
2021/01/19 08:29:25;;;;;;;0.88;0.85;;;;;12.30;100192.00;;;;5010470;28;20201;-78
2021/01/19 08:31:54;;;;;;;1.10;1.00;;;;;12.30;100192.00;;;;5013521;28;20209;-79
2021/01/19 08:34:22;;;;;;;1.02;0.90;;;;;12.30;100198.00;;;;5011435;28;20240;-77
2021/01/19 08:36:49;;;;;;;1.50;1.00;;;;;12.30;100187.00;;;;5011186;28;20216;-78
2021/01/19 08:39:17;;;;;;;1.67;1.10;;;;;12.40;100196.00;;;;5009069;28;20667;-78
2021/01/19 08:41:45;;;;;;;1.25;1.00;;;;;12.40;100199.00;;;;5009560;28;20208;-79
2021/01/19 08:44:13;;;;;;;1.20;1.02;;;;;12.40;100195.00;;;;5010626;28;20682;-78
2021/01/19 08:46:41;;;;;;;1.08;0.88;;;;;12.40;100191.00;;;;5011519;28;20200;-79
2021/01/19 08:49:09;;;;;;;1.48;0.90;;;;;12.40;100183.00;;;;5010414;28;20197;-78
2021/01/19 08:51:38;;;;;;;1.20;1.10;;;;;12.50;100184.00;;;;5010483;28;21070;-79
2021/01/19 08:54:09;;;;;;;1.50;1.08;;;;;12.50;100180.00;;;;5006185;28;20225;-80
2021/01/19 08:56:39;;;;;;;1.30;0.90;;;;;12.50;100182.00;;;;4990068;28;20201;-78
2021/01/19 08:59:06;;;;;;;0.98;0.68;;;;;12.60;100184.00;;;;4989206;28;20312;-79
2021/01/19 09:01:33;;;;;;;1.98;1.27;;;;;12.60;100181.00;;;;4989801;28;20212;-79
2021/01/19 09:04:01;;;;;;;1.38;0.80;;;;;12.60;100180.00;;;;4990516;28;20248;-79
2021/01/19 09:06:29;;;;;;;1.98;0.77;;;;;12.70;100184.00;;;;4989011;28;20205;-79
2021/01/19 09:08:58;;;;;;;1.98;0.65;;;;;12.70;100184.00;;;;4989548;28;20209;-79
2021/01/19 09:11:30;;;;;;;1.23;0.75;;;;;12.70;100193.00;;;;4989915;28;20249;-80
2021/01/19 09:14:05;;;;;;;0.90;0.47;;;;;12.80;100180.00;;;;4991077;28;20248;-78
2021/01/19 09:16:32;;;;;;;1.40;0.90;;;;;12.80;100178.00;;;;5003065;28;20578;-78
2021/01/19 09:19:01;;;;;;;0.90;0.60;;;;;12.80;100177.00;;;;5013194;28;20258;-79
2021/01/19 09:21:29;;;;;;;0.70;0.60;;;;;12.90;100178.00;;;;5010801;28;20197;-79
2021/01/19 09:23:57;;;;;;;0.68;0.60;;;;;12.90;100185.00;;;;5008942;28;20208;-78
2021/01/19 09:26:23;;;;;;;3.22;1.02;;;;;12.90;100177.00;;;;5010041;28;20213;-80
2021/01/19 09:28:50;;;;;;;1.67;0.73;;;;;13.00;100169.00;;;;5009736;28;20209;-78
2021/01/19 09:31:20;;;;;;;0.77;0.50;;;;;13.00;100178.00;;;;5012199;28;20197;-79
2021/01/19 09:33:48;;;;;;;0.93;0.70;;;;;13.00;100193.00;;;;5010841;28;20224;-79
2021/01/19 09:36:15;;;;;;;1.10;0.45;;;;;13.00;100191.00;;;;5013261;28;20197;-79
2021/01/19 09:38:44;;;;;;;0.90;0.50;;;;;13.10;100193.00;;;;5012090;28;20209;-79
2021/01/19 09:41:17;;;;;;;1.05;0.77;;;;;13.10;100189.00;;;;5014352;28;20220;-78
2021/01/19 09:43:49;;;;;;;1.67;0.60;;;;;13.10;100189.00;;;;5011303;28;20201;-77
2021/01/19 09:46:17;;;;;;;1.40;0.70;;;;;13.10;100200.00;;;;5009658;28;20255;-77
2021/01/19 09:48:48;;;;;;;1.00;0.80;;;;;13.10;100193.00;;;;5011026;28;20205;-79
2021/01/19 09:51:15;;;;;;;0.85;0.70;;;;;13.20;100205.00;;;;5012001;28;20251;-79
2021/01/19 09:53:41;;;;;;;0.65;0.35;;;;;13.20;100189.00;;;;5015082;28;20220;-79
2021/01/19 09:56:16;;;;;;;0.90;0.60;;;;;13.20;100189.00;;;;5016616;28;20635;-79
2021/01/19 09:58:43;;;;;;;1.25;0.73;;;;;13.30;100187.00;;;;5015652;28;20339;-79
2021/01/19 10:01:20;;;;;;;1.20;0.65;;;;;13.30;100193.00;;;;5016596;28;20717;-79
2021/01/19 10:03:49;;;;;;;0.60;0.52;;;;;13.30;100199.00;;;;4999129;28;20577;-79
2021/01/19 10:06:19;;;;;;;1.08;0.75;;;;;13.30;100191.00;;;;4998470;28;20232;-79
2021/01/19 10:08:51;;;;;;;2.40;0.60;;;;;13.40;100187.00;;;;4995631;28;20202;-79
2021/01/19 10:11:29;;;;;;;2.05;0.40;;;;;13.30;100201.00;;;;4995052;28;20718;-79
2021/01/19 10:13:56;;;;;;;0.63;0.57;;;;;13.40;100199.00;;;;4996429;28;20237;-78
2021/01/19 10:16:28;;;;;;;0.55;0.45;;;;;13.40;100204.00;;;;5006167;28;20312;-79
2021/01/19 10:18:55;;;;;;;1.42;0.70;;;;;13.50;100196.00;;;;5011952;28;20240;-79
2021/01/19 10:21:30;;;;;;;0.90;0.60;;;;;13.40;100213.00;;;;5012856;28;20259;-79
2021/01/19 10:24:00;;;;;;;3.25;1.00;;;;;13.50;100197.00;;;;5013346;28;20204;-78
2021/01/19 10:26:30;;;;;;;0.60;0.38;;;;;13.50;100196.00;;;;5012513;28;20209;-78
2021/01/19 10:28:58;;;;;;;0.60;0.57;;;;;13.60;100199.00;;;;5013547;28;20205;-77
2021/01/19 10:31:27;;;;;;;1.42;0.98;;;;;13.60;100198.00;;;;5012276;28;20197;-78
2021/01/19 10:33:58;;;;;;;0.80;0.65;;;;;13.60;100190.00;;;;5014990;28;20229;-79
2021/01/19 10:36:26;;;;;;;1.95;0.82;;;;;13.60;100209.00;;;;5014415;28;20205;-79
2021/01/19 10:38:53;;;;;;;0.70;0.60;;;;;13.60;100204.00;;;;5013345;28;20231;-78
2021/01/19 10:41:29;;;;;;;0.90;0.60;;;;;13.60;100207.00;;;;5012647;28;20205;-77
2021/01/19 10:43:57;;;;;;;1.00;0.60;;;;;13.60;100210.00;;;;5011922;28;20585;-77
2021/01/19 10:46:25;;;;;;;0.95;0.63;;;;;13.60;100216.00;;;;5011397;28;20212;-77
2021/01/19 10:49:09;;;;;;;1.02;0.90;;;;;13.60;100200.00;;;;5012862;28;20197;-78
2021/01/19 10:51:37;;;;;;;1.27;0.85;;;;;13.70;100217.00;;;;5012403;28;20204;-77
2021/01/19 10:54:05;;;;;;;1.60;0.80;;;;;13.70;100210.00;;;;5000278;28;20233;-78
2021/01/19 10:56:32;;;;;;;1.45;0.90;;;;;13.70;100207.00;;;;4992365;28;20212;-78
2021/01/19 10:59:00;;;;;;;1.27;0.80;;;;;13.70;100202.00;;;;4991802;28;20240;-78
2021/01/19 11:01:26;;;;;;;0.77;0.68;;;;;13.70;100216.00;;;;4992061;28;20209;-78
2021/01/19 11:03:53;;;;;;;1.77;0.85;;;;;13.80;100204.00;;;;4993114;28;20205;-77
2021/01/19 11:06:21;;;;;;;1.67;0.80;;;;;13.80;100215.00;;;;4992399;28;20202;-78
2021/01/19 11:08:48;;;;;;;1.55;1.10;;;;;13.80;100213.00;;;;4992527;28;20281;-78
2021/01/19 11:11:14;;;;;;;1.13;1.00;;;;;13.80;100216.00;;;;4992985;28;20638;-78
2021/01/19 11:13:41;;;;;;;0.80;0.70;;;;;13.80;100217.00;;;;4992670;28;20683;-77
2021/01/19 11:16:09;;;;;;;1.10;0.90;;;;;13.80;100212.00;;;;4998977;28;20193;-78
2021/01/19 11:18:36;;;;;;;1.20;0.80;;;;;13.90;100226.00;;;;5013297;28;20200;-78
2021/01/19 11:21:05;;;;;;;1.98;1.40;;;;;13.90;100231.00;;;;5013307;28;20204;-79
2021/01/19 11:23:32;;;;;;;1.35;1.10;;;;;14.00;100221.00;;;;5013002;28;20236;-78
2021/01/19 11:25:59;;;;;;;2.30;1.35;;;;;14.00;100223.00;;;;5010305;28;20204;-79
2021/01/19 11:28:26;;;;;;;1.67;1.40;;;;;14.00;100224.00;;;;5011116;28;20208;-78
2021/01/19 11:30:53;;;;;;;1.70;0.90;;;;;14.10;100222.00;;;;5011550;28;20598;-78
2021/01/19 11:33:21;;;;;;;1.02;0.93;;;;;14.10;100221.00;;;;5010504;28;20228;-78
2021/01/19 11:35:47;;;;;;;1.98;1.38;;;;;14.20;100220.00;;;;5011171;28;20205;-79
2021/01/19 11:38:14;;;;;;;2.15;1.05;;;;;14.20;100219.00;;;;5012723;28;20216;-79
2021/01/19 11:40:42;;;;;;;3.15;0.90;;;;;14.30;100222.00;;;;5013390;28;20212;-78
2021/01/19 11:43:09;;;;;;;1.50;0.90;;;;;14.30;100215.00;;;;5015330;28;20197;-78
2021/01/19 11:45:36;;;;;;;1.85;0.63;;;;;14.40;100216.00;;;;5010275;28;20640;-77
2021/01/19 11:48:03;;;;;;;3.85;0.85;;;;;14.40;100222.00;;;;5005947;28;20264;-78
2021/01/19 11:50:30;;;;;;;2.92;0.80;;;;;14.40;100214.00;;;;5010435;28;20204;-77
2021/01/19 11:52:57;;;;;;;2.78;0.60;;;;;14.50;100222.00;;;;5004858;28;20204;-78
2021/01/19 11:55:24;;;;;;;1.33;0.32;;;;;14.60;100226.00;;;;5009663;28;20260;-78
2021/01/19 11:57:50;;;;;;;0.90;0.45;;;;;14.60;100212.00;;;;5011193;28;20201;-79
2021/01/19 12:00:18;;;;;;;1.00;0.47;;;;;14.70;100213.00;;;;5011529;28;20224;-78
2021/01/19 12:02:45;;;;;;;3.33;0.50;;;;;14.70;100211.00;;;;4994256;28;20232;-78
2021/01/19 12:05:13;;;;;;;2.60;0.80;;;;;14.80;100225.00;;;;4990819;28;20201;-78
2021/01/19 12:07:40;;;;;;;1.83;0.95;;;;;14.80;100221.00;;;;4993564;28;20687;-76
2021/01/19 12:10:09;;;;;;;2.65;0.70;;;;;14.80;100244.00;;;;5005783;28;20272;-78
2021/01/19 12:12:37;;;;;;;5.22;0.63;;;;;14.80;100235.00;;;;5004920;28;20210;-77
2021/01/19 12:15:05;;;;;;;3.83;0.77;;;;;14.90;100231.00;;;;5007367;28;20244;-77
2021/01/19 12:17:32;;;;;;;1.83;0.70;;;;;14.90;100234.00;;;;5007893;28;20300;-77
2021/01/19 12:19:59;;;;;;;2.92;0.73;;;;;15.00;100228.00;;;;5008111;28;20205;-78
2021/01/19 12:22:26;;;;;;;4.88;1.15;;;;;15.00;100232.00;;;;5007664;28;21708;-78